Time;durP1;ratioP1;P1;durP2;ratioP2;P2;SDS_P1;SDS_P2;PMS_P1;PMS_P2;Temp;Humidity;BMP_temperature;BMP_pressure;BME280_temperature;BME280_humidity;BME280_pressure;Samples;Min_cycle;Max_cycle;Signal;HPM_P1;HPM_P2
2023/01/04 00:00:33;;;;;;;;;;;;;;;;;;6126549;23;20453;-78
2023/01/04 00:03:00;;;;;;;8.88;2.60;;;;;;;;;;6126741;23;19917;-76
2023/01/04 00:05:26;;;;;;;;;;;;;;;;;;6127107;23;19998;-78
2023/01/04 00:07:52;;;;;;;11.70;2.00;;;;;;;;;;6126553;23;19911;-77
2023/01/04 00:10:18;;;;;;;11.35;2.13;;;;;;;;;;6126630;23;20009;-78
2023/01/04 00:12:44;;;;;;;;;;;;;;;;;;6127175;23;20002;-78
2023/01/04 00:15:10;;;;;;;14.35;2.40;;;;;;;;;;6126518;23;19901;-77
2023/01/04 00:17:37;;;;;;;11.82;2.15;;;;;;;;;;6126611;23;20025;-77
2023/01/04 00:20:02;;;;;;;;;;;;;;;;;;6127026;23;20010;-78
2023/01/04 00:22:32;;;;;;;15.20;2.75;;;;;;;;;;6126564;23;19955;-76
2023/01/04 00:24:58;;;;;;;17.98;2.92;;;;;;;;;;6126539;23;20009;-77
2023/01/04 00:27:24;;;;;;;;;;;;;;;;;;6127035;23;20002;-77
2023/01/04 00:29:50;;;;;;;17.83;2.83;;;;;;;;;;6126611;23;20020;-77
2023/01/04 00:32:16;;;;;;;;;;;;;;;;;;6126894;23;20004;-77
2023/01/04 00:34:42;;;;;;;13.43;2.30;;;;;;;;;;6126922;23;19983;-77
2023/01/04 00:37:08;;;;;;;;;;;;;;;;;;6127300;23;20005;-77
2023/01/04 00:39:34;;;;;;;11.43;2.22;;;;;;;;;;6126335;23;19951;-78
2023/01/04 00:42:04;;;;;;;;;;;;;;;;;;6126997;23;20009;-76
2023/01/04 00:44:31;;;;;;;14.15;2.72;;;;;;;;;;6126285;23;19904;-78
2023/01/04 00:46:57;;;;;;;14.90;2.42;;;;;;;;;;6126546;23;20002;-77
2023/01/04 00:49:23;;;;;;;13.68;2.40;;;;;;;;;;6126493;23;19998;-77
2023/01/04 00:51:49;;;;;;;;;;;;;;;;;;6126850;23;20077;-78
2023/01/04 00:54:16;;;;;;;12.50;2.08;;;;;;;;;;6126262;23;19927;-78
2023/01/04 00:56:42;;;;;;;14.65;2.15;;;;;;;;;;6126814;23;20002;-78
2023/01/04 00:59:10;;;;;;;17.88;2.50;;;;;;;;;;6126068;23;20045;-77
2023/01/04 01:01:36;;;;;;;10.90;2.10;;;;;;;;;;6126248;23;20033;-77
2023/01/04 01:04:02;;;;;;;;;;;;;;;;;;6126617;23;20147;-78
2023/01/04 01:06:28;;;;;;;12.85;2.33;;;;;;;;;;6126217;23;19943;-76
2023/01/04 01:08:54;;;;;;;10.00;2.03;;;;;;;;;;6127904;23;19998;-76
2023/01/04 01:11:21;;;;;;;12.55;2.25;;;;;;;;;;6126568;23;20033;-77
2023/01/04 01:13:47;;;;;;;9.55;1.90;;;;;;;;;;6126503;23;20041;-76
2023/01/04 01:16:15;;;;;;;15.40;2.28;;;;;;;;;;6128536;23;20068;-77
2023/01/04 01:18:42;;;;;;;14.68;2.65;;;;;;;;;;6128221;23;20125;-76
2023/01/04 01:21:09;;;;;;;16.95;3.05;;;;;;;;;;6128036;23;20006;-76
2023/01/04 01:23:35;;;;;;;14.55;2.50;;;;;;;;;;6127878;23;20077;-77
2023/01/04 01:26:06;;;;;;;17.17;2.33;;;;;;;;;;6127976;23;20036;-77
2023/01/04 01:28:33;;;;;;;19.10;3.10;;;;;;;;;;6126399;23;20344;-77
2023/01/04 01:30:59;;;;;;;17.50;2.78;;;;;;;;;;6127878;23;20377;-78
2023/01/04 01:33:26;;;;;;;26.98;3.47;;;;;;;;;;6127921;23;20001;-77
2023/01/04 01:35:52;;;;;;;20.17;3.83;;;;;;;;;;6127915;23;20337;-78
2023/01/04 01:38:18;;;;;;;;;;;;;;;;;;6128339;23;20037;-78
2023/01/04 01:40:45;;;;;;;24.65;3.22;;;;;;;;;;6127913;23;19901;-77
2023/01/04 01:43:16;;;;;;;30.17;4.70;;;;;;;;;;6127673;23;20409;-77
2023/01/04 01:45:42;;;;;;;21.00;3.35;;;;;;;;;;6127962;23;20006;-78
2023/01/04 01:48:14;;;;;;;24.88;3.90;;;;;;;;;;6126261;23;20005;-77
2023/01/04 01:50:42;;;;;;;25.38;4.15;;;;;;;;;;6127774;23;20002;-76
2023/01/04 01:53:08;;;;;;;31.17;4.72;;;;;;;;;;6128237;23;19998;-78
2023/01/04 01:55:36;;;;;;;21.98;3.90;;;;;;;;;;6127725;23;20314;-77
2023/01/04 01:58:04;;;;;;;26.75;4.10;;;;;;;;;;6127906;23;20081;-78
2023/01/04 02:00:31;;;;;;;28.95;4.05;;;;;;;;;;6127209;23;20088;-77
2023/01/04 02:03:32;;;;;;;29.13;4.32;;;;;;;;;;6127959;23;20021;-77
2023/01/04 02:06:00;;;;;;;25.63;3.65;;;;;;;;;;6010344;23;20060;-77
2023/01/04 02:08:26;;;;;;;25.42;4.15;;;;;;;;;;6105879;23;20032;-77
2023/01/04 02:10:53;;;;;;;34.20;5.53;;;;;;;;;;6127817;23;20445;-78
2023/01/04 02:13:18;;;;;;;;;;;;;;;;;;6128338;23;20073;-78
2023/01/04 02:15:50;;;;;;;27.38;4.00;;;;;;;;;;6127660;23;20390;-78
2023/01/04 02:18:20;;;;;;;29.20;4.20;;;;;;;;;;6127880;23;20006;-78
2023/01/04 02:20:56;;;;;;;31.50;5.07;;;;;;;;;;6127757;23;20077;-77
2023/01/04 02:23:37;;;;;;;24.15;4.20;;;;;;;;;;6127773;23;20433;-77
2023/01/04 02:26:36;;;;;;;28.98;4.35;;;;;;;;;;6127779;23;20002;-77
2023/01/04 02:29:20;;;;;;;28.20;4.55;;;;;;;;;;6064309;23;20002;-79
2023/01/04 02:31:53;;;;;;;30.63;4.47;;;;;;;;;;6126121;23;20002;-77
2023/01/04 02:34:22;;;;;;;21.48;3.78;;;;;;;;;;6128138;23;20036;-77
2023/01/04 02:36:57;;;;;;;25.20;4.50;;;;;;;;;;6126167;23;20005;-77
2023/01/04 02:39:34;;;;;;;28.00;5.50;;;;;;;;;;6127632;23;20006;-76
2023/01/04 02:42:15;;;;;;;32.80;4.57;;;;;;;;;;6127830;23;20002;-77
2023/01/04 02:50:34;;;;;;;21.58;4.50;;;;;;;;;;6127405;23;20296;-76
2023/01/04 02:53:11;;;;;;;22.33;3.78;;;;;;;;;;6126020;23;20436;-77
2023/01/04 02:55:51;;;;;;;28.25;4.38;;;;;;;;;;6127808;23;20005;-77
2023/01/04 02:58:21;;;;;;;34.75;4.35;;;;;;;;;;6127319;23;20001;-77
2023/01/04 03:07:10;;;;;;;31.90;5.10;;;;;;;;;;6127061;23;20395;-77
2023/01/04 03:09:39;;;;;;;22.10;4.35;;;;;;;;;;6127265;23;20422;-77
2023/01/04 03:14:59;;;;;;;24.95;4.45;;;;;;;;;;6127300;23;20021;-77
2023/01/04 03:17:26;;;;;;;28.95;4.65;;;;;;;;;;6127504;23;20006;-77
2023/01/04 03:19:53;;;;;;;26.05;3.65;;;;;;;;;;6127314;23;20008;-77
2023/01/04 03:36:24;;;;;;;33.10;4.57;;;;;;;;;;6126848;23;20017;-76
2023/01/04 03:50:39;;;;;;;29.33;4.10;;;;;;;;;;6127124;23;20049;-77
2023/01/04 03:53:07;;;;;;;27.02;4.28;;;;;;;;;;6127002;23;19998;-77
2023/01/04 03:55:34;;;;;;;30.83;5.03;;;;;;;;;;6126988;23;20017;-77
2023/01/04 03:58:00;;;;;;;32.40;4.70;;;;;;;;;;6126851;23;20115;-76
2023/01/04 04:00:27;;;;;;;32.33;4.53;;;;;;;;;;6126588;23;20087;-77
2023/01/04 04:02:53;;;;;;;34.72;4.55;;;;;;;;;;6126819;23;20012;-77
2023/01/04 04:08:27;;;;;;;26.30;4.40;;;;;;;;;;6126495;23;20060;-77
2023/01/04 04:10:54;;;;;;;30.80;4.35;;;;;;;;;;6126794;23;20037;-77
2023/01/04 04:13:20;;;;;;;33.42;4.32;;;;;;;;;;6126997;23;20009;-76
2023/01/04 04:15:47;;;;;;;26.58;4.45;;;;;;;;;;6126511;23;20069;-76
2023/01/04 04:18:13;;;;;;;35.17;4.60;;;;;;;;;;6126983;23;20453;-76
2023/01/04 04:20:39;;;;;;;;;;;;;;;;;;6127195;23;20005;-77
2023/01/04 04:23:05;;;;;;;36.20;4.90;;;;;;;;;;6126385;23;20217;-77
2023/01/04 04:25:31;;;;;;;;;;;;;;;;;;6126866;23;20086;-77
2023/01/04 04:27:57;;;;;;;29.92;4.18;;;;;;;;;;6126666;23;19901;-76
2023/01/04 04:30:23;;;;;;;;;;;;;;;;;;6127259;23;20006;-77
2023/01/04 04:32:49;;;;;;;29.17;4.50;;;;;;;;;;6100428;23;19967;-78
2023/01/04 04:35:15;;;;;;;26.83;5.07;;;;;;;;;;6126523;23;20029;-77
2023/01/04 04:37:41;;;;;;;;;;;;;;;;;;6126837;23;20501;-77
2023/01/04 04:41:37;;;;;;;25.75;3.90;;;;;;;;;;6100420;23;19938;-77
2023/01/04 04:42:54;;;;;;;22.67;4.30;;;;;;;;;;6127068;23;20017;-77
2023/01/04 04:45:20;;;;;;;24.88;4.03;;;;;;;;;;6128328;23;20002;-77
2023/01/04 04:47:46;;;;;;;19.63;3.45;;;;;;;;;;6128459;23;20001;-77
2023/01/04 04:50:12;;;;;;;;;;;;;;;;;;6129195;23;20002;-78
2023/01/04 04:52:40;;;;;;;22.77;3.55;;;;;;;;;;6128320;23;19901;-77
2023/01/04 04:55:07;;;;;;;22.52;3.30;;;;;;;;;;6128444;23;20492;-77
2023/01/04 04:57:33;;;;;;;22.70;3.40;;;;;;;;;;6128360;23;20037;-77
2023/01/04 04:59:58;;;;;;;;;;;;;;;;;;6102959;23;20026;-77
2023/01/04 05:02:25;;;;;;;23.45;3.30;;;;;;;;;;6070492;23;19901;-77
2023/01/04 05:04:50;;;;;;;;;;;;;;;;;;6071007;23;20003;-77
2023/01/04 05:07:16;;;;;;;23.95;4.00;;;;;;;;;;6070417;23;19901;-78
2023/01/04 05:09:42;;;;;;;;;;;;;;;;;;6070826;23;20038;-78
2023/01/04 05:14:56;;;;;;;19.90;3.13;;;;;;;;;;6069961;23;20058;-77
2023/01/04 05:17:22;;;;;;;;;;;;;;;;;;6070736;23;20010;-77
2023/01/04 05:19:48;;;;;;;21.05;3.08;;;;;;;;;;6070075;23;19902;-78
2023/01/04 05:22:14;;;;;;;;;;;;;;;;;;6070601;23;20002;-76
2023/01/04 05:24:40;;;;;;;15.20;2.65;;;;;;;;;;6069990;23;19965;-77
2023/01/04 05:27:06;;;;;;;;;;;;;;;;;;6071018;23;20002;-77
2023/01/04 05:32:16;;;;;;;19.63;2.85;;;;;;;;;;6069786;23;20018;-77
2023/01/04 05:34:42;;;;;;;;;;;;;;;;;;6070822;23;20011;-76
2023/01/04 05:37:08;;;;;;;18.75;3.17;;;;;;;;;;6070142;23;19908;-77
2023/01/04 05:39:34;;;;;;;;;;;;;;;;;;6070411;23;20003;-77
2023/01/04 05:44:45;;;;;;;14.50;2.60;;;;;;;;;;6069563;23;20021;-76
2023/01/04 05:47:11;;;;;;;;;;;;;;;;;;6070301;23;20030;-76
2023/01/04 05:49:37;;;;;;;16.45;2.92;;;;;;;;;;6069965;23;19908;-76
2023/01/04 05:52:03;;;;;;;;;;;;;;;;;;6070311;23;20414;-76
2023/01/04 05:54:29;;;;;;;12.30;2.33;;;;;;;;;;6069280;23;19905;-76
2023/01/04 05:56:55;;;;;;;;;;;;;;;;;;6070395;23;20035;-77
2023/01/04 05:59:21;;;;;;;21.77;2.90;;;;;;;;;;6092649;23;19934;-76
2023/01/04 06:01:47;;;;;;;;;;;;;;;;;;6128625;23;20086;-76
2023/01/04 06:04:13;;;;;;;15.40;2.60;;;;;;;;;;6128041;23;19944;-77
2023/01/04 06:06:39;;;;;;;;;;;;;;;;;;6128164;23;20008;-77
2023/01/04 06:09:05;;;;;;;18.20;2.70;;;;;;;;;;6101743;23;19972;-77
2023/01/04 06:11:31;;;;;;;;;;;;;;;;;;6128147;23;19998;-77
2023/01/04 06:13:57;;;;;;;18.58;2.78;;;;;;;;;;6101825;23;19943;-77
2023/01/04 06:16:23;;;;;;;;;;;;;;;;;;6128497;23;20065;-78
2023/01/04 06:18:49;;;;;;;15.80;3.03;;;;;;;;;;6127899;23;19907;-77
2023/01/04 06:21:15;;;;;;;16.35;3.25;;;;;;;;;;6127605;23;20006;-77
2023/01/04 06:23:41;;;;;;;17.65;3.25;;;;;;;;;;6127576;23;20006;-77
2023/01/04 06:26:07;;;;;;;17.50;3.22;;;;;;;;;;6127555;23;20009;-78
2023/01/04 06:28:33;;;;;;;;;;;;;;;;;;6128052;23;20001;-77
2023/01/04 06:31:06;;;;;;;13.25;3.05;;;;;;;;;;6127561;23;20284;-77
2023/01/04 06:33:32;;;;;;;19.90;3.67;;;;;;;;;;6127492;23;20012;-77
2023/01/04 06:35:58;;;;;;;15.00;2.25;;;;;;;;;;6125793;23;20393;-77
2023/01/04 06:38:25;;;;;;;19.38;2.85;;;;;;;;;;6127359;23;20081;-77
2023/01/04 06:40:51;;;;;;;19.23;2.88;;;;;;;;;;6127375;23;20002;-77
2023/01/04 06:43:17;;;;;;;18.58;3.00;;;;;;;;;;6125654;23;20428;-78
2023/01/04 06:45:43;;;;;;;22.02;3.45;;;;;;;;;;6127482;23;20077;-76
2023/01/04 06:48:09;;;;;;;15.05;2.45;;;;;;;;;;6127494;23;20030;-76
2023/01/04 06:50:35;;;;;;;12.80;2.67;;;;;;;;;;6127648;23;20455;-76
2023/01/04 06:53:01;;;;;;;16.48;2.47;;;;;;;;;;6127131;23;19998;-77
2023/01/04 06:55:30;;;;;;;;;;;;;;;;;;6127745;23;20002;-77
2023/01/04 06:57:57;;;;;;;18.70;2.55;;;;;;;;;;6127641;23;19900;-77
2023/01/04 07:00:23;;;;;;;16.50;2.60;;;;;;;;;;6125084;23;20162;-76
2023/01/04 07:02:49;;;;;;;9.52;1.90;;;;;;;;;;6126951;23;20053;-76
2023/01/04 07:05:15;;;;;;;14.88;3.17;;;;;;;;;;6127001;23;20011;-77
2023/01/04 07:07:42;;;;;;;17.60;2.78;;;;;;;;;;6127206;23;19998;-77
2023/01/04 07:10:07;;;;;;;;;;;;;;;;;;6127596;23;20337;-77
2023/01/04 07:12:34;;;;;;;13.13;2.00;;;;;;;;;;6127155;23;19908;-77
2023/01/04 07:15:00;;;;;;;10.32;2.00;;;;;;;;;;6127063;23;20006;-76
2023/01/04 07:17:26;;;;;;;;;;;;;;;;;;6127355;23;20057;-77
2023/01/04 07:19:52;;;;;;;12.63;2.42;;;;;;;;;;6127449;23;19901;-76
2023/01/04 07:22:18;;;;;;;11.73;2.00;;;;;;;;;;6127130;23;20006;-77
2023/01/04 07:24:44;;;;;;;17.52;2.60;;;;;;;;;;6126845;23;20002;-77
2023/01/04 07:27:10;;;;;;;10.10;2.13;;;;;;;;;;6126816;23;19997;-77
2023/01/04 07:29:37;;;;;;;11.77;1.90;;;;;;;;;;6126891;23;19997;-77
2023/01/04 07:32:03;;;;;;;11.02;2.38;;;;;;;;;;6126885;23;20030;-77
2023/01/04 07:34:30;;;;;;;11.90;2.28;;;;;;;;;;6126826;23;20001;-77
2023/01/04 07:36:56;;;;;;;11.15;2.10;;;;;;;;;;6126853;23;20010;-77
2023/01/04 07:39:22;;;;;;;8.77;1.92;;;;;;;;;;6126811;23;20002;-77
2023/01/04 07:41:49;;;;;;;8.18;1.85;;;;;;;;;;6126731;23;20009;-78
2023/01/04 07:44:17;;;;;;;11.20;2.10;;;;;;;;;;6126654;23;20006;-77
2023/01/04 07:46:43;;;;;;;7.97;1.70;;;;;;;;;;6126822;23;20061;-77
2023/01/04 07:49:12;;;;;;;7.03;1.50;;;;;;;;;;6126725;23;20333;-78
2023/01/04 07:51:38;;;;;;;7.32;1.40;;;;;;;;;;6125159;23;20006;-78
2023/01/04 07:54:03;;;;;;;;;;;;;;;;;;6127205;23;20013;-77
2023/01/04 07:56:30;;;;;;;6.82;1.20;;;;;;;;;;6126699;23;20236;-78
2023/01/04 07:58:58;;;;;;;11.07;1.63;;;;;;;;;;6126450;23;20014;-77
2023/01/04 08:01:24;;;;;;;9.77;1.60;;;;;;;;;;6125067;23;20030;-77
2023/01/04 08:03:50;;;;;;;8.27;1.42;;;;;;;;;;6126587;23;20013;-77
2023/01/04 08:06:17;;;;;;;9.45;1.67;;;;;;;;;;6126605;23;20033;-77
2023/01/04 08:08:43;;;;;;;8.80;1.70;;;;;;;;;;6126932;23;20464;-77
2023/01/04 08:11:14;;;;;;;7.47;1.55;;;;;;;;;;6126556;23;20009;-78
2023/01/04 08:13:40;;;;;;;4.82;1.30;;;;;;;;;;6126598;23;20017;-77
2023/01/04 08:16:11;;;;;;;5.10;1.25;;;;;;;;;;6126520;23;20027;-78
2023/01/04 08:18:42;;;;;;;6.13;1.23;;;;;;;;;;6126729;23;20002;-77
2023/01/04 08:21:08;;;;;;;5.70;1.50;;;;;;;;;;6126748;23;20005;-77
2023/01/04 08:23:35;;;;;;;7.28;1.50;;;;;;;;;;6126335;23;20002;-77
2023/01/04 08:26:06;;;;;;;6.40;1.42;;;;;;;;;;6126454;23;20361;-78
2023/01/04 08:28:32;;;;;;;5.95;1.48;;;;;;;;;;6126869;23;20005;-77
2023/01/04 08:31:03;;;;;;;6.80;1.35;;;;;;;;;;6126458;23;20006;-76
2023/01/04 08:33:29;;;;;;;5.40;1.27;;;;;;;;;;6124849;23;20033;-77
2023/01/04 08:36:05;;;;;;;5.93;1.20;;;;;;;;;;6126443;23;20041;-77
2023/01/04 08:38:31;;;;;;;6.35;1.52;;;;;;;;;;6126744;23;20013;-77
2023/01/04 08:40:57;;;;;;;;;;;;;;;;;;6126973;23;20010;-77
2023/01/04 08:43:23;;;;;;;7.90;1.48;;;;;;;;;;6126428;23;20284;-78
2023/01/04 08:45:49;;;;;;;;;;;;;;;;;;6126938;23;20002;-77
2023/01/04 08:48:16;;;;;;;8.30;1.58;;;;;;;;;;6126334;23;20236;-76
2023/01/04 08:50:42;;;;;;;7.18;1.60;;;;;;;;;;6126245;23;20009;-78
2023/01/04 08:53:08;;;;;;;;;;;;;;;;;;6126694;23;20002;-77
2023/01/04 08:55:34;;;;;;;8.65;1.55;;;;;;;;;;6126538;23;19901;-77
2023/01/04 08:58:00;;;;;;;9.45;1.50;;;;;;;;;;6126244;23;20049;-76
2023/01/04 09:00:26;;;;;;;9.45;1.88;;;;;;;;;;6125824;23;20330;-77
2023/01/04 09:02:52;;;;;;;;;;;;;;;;;;6126808;23;20010;-77
2023/01/04 09:05:19;;;;;;;8.35;1.65;;;;;;;;;;6126382;23;19905;-77
2023/01/04 09:07:45;;;;;;;11.20;2.05;;;;;;;;;;6126305;23;20498;-78
2023/01/04 09:10:11;;;;;;;9.82;1.80;;;;;;;;;;6126411;23;20008;-76
2023/01/04 09:12:37;;;;;;;9.48;1.80;;;;;;;;;;6126312;23;20043;-76
2023/01/04 09:15:03;;;;;;;11.68;2.28;;;;;;;;;;6126232;23;20010;-76
2023/01/04 09:17:30;;;;;;;12.95;2.22;;;;;;;;;;6126195;23;20006;-77
2023/01/04 09:19:56;;;;;;;12.82;2.40;;;;;;;;;;6126205;23;20008;-77
2023/01/04 09:22:22;;;;;;;11.77;2.10;;;;;;;;;;6126156;23;20009;-77
2023/01/04 09:24:48;;;;;;;12.60;2.40;;;;;;;;;;6126692;23;20426;-76
2023/01/04 09:27:14;;;;;;;13.27;2.38;;;;;;;;;;6126186;23;20003;-77
2023/01/04 09:29:40;;;;;;;12.30;2.17;;;;;;;;;;6127586;23;20003;-78
2023/01/04 09:32:06;;;;;;;;;;;;;;;;;;6128700;23;20002;-77
2023/01/04 09:34:32;;;;;;;13.13;2.08;;;;;;;;;;6128089;23;19979;-77
2023/01/04 09:36:58;;;;;;;11.73;2.35;;;;;;;;;;6128273;23;20002;-77
2023/01/04 09:39:29;;;;;;;14.57;2.33;;;;;;;;;;6127969;23;20006;-77
2023/01/04 09:41:59;;;;;;;11.65;2.45;;;;;;;;;;6128258;23;20006;-77
2023/01/04 09:44:28;;;;;;;12.60;2.20;;;;;;;;;;6127756;23;20002;-76
2023/01/04 09:47:14;;;;;;;13.73;2.30;;;;;;;;;;6127929;23;20002;-76
2023/01/04 09:49:45;;;;;;;12.10;2.78;;;;;;;;;;6127776;23;20006;-76
2023/01/04 09:52:16;;;;;;;13.30;2.38;;;;;;;;;;6128074;23;20005;-77
2023/01/04 09:54:42;;;;;;;12.02;2.40;;;;;;;;;;6126227;23;20385;-77
2023/01/04 09:57:07;;;;;;;;;;;;;;;;;;6128343;23;20437;-76
2023/01/04 09:59:34;;;;;;;13.30;3.05;;;;;;;;;;6101758;23;19912;-77
2023/01/04 10:02:22;;;;;;;11.77;2.35;;;;;;;;;;6127827;23;20077;-78
2023/01/04 10:04:50;;;;;;;16.73;2.70;;;;;;;;;;6128091;23;20002;-76
2023/01/04 10:07:19;;;;;;;14.10;2.67;;;;;;;;;;6128152;23;20028;-77
2023/01/04 10:09:46;;;;;;;14.68;2.40;;;;;;;;;;6127741;23;20002;-77
2023/01/04 10:12:15;;;;;;;12.18;2.38;;;;;;;;;;6127906;23;20077;-76
2023/01/04 10:14:52;;;;;;;14.10;2.55;;;;;;;;;;6127706;23;20005;-77
2023/01/04 10:17:18;;;;;;;15.95;2.42;;;;;;;;;;6125751;23;20341;-77
2023/01/04 10:20:14;;;;;;;11.38;2.15;;;;;;;;;;6127792;23;20069;-76
2023/01/04 10:22:49;;;;;;;14.50;2.75;;;;;;;;;;6024929;23;20012;-77
2023/01/04 10:25:15;;;;;;;15.45;2.40;;;;;;;;;;6127761;23;20009;-77
2023/01/04 10:27:40;;;;;;;;;;;;;;;;;;6126652;23;20081;-77
2023/01/04 10:30:25;;;;;;;12.68;2.40;;;;;;;;;;6128162;23;20332;-78
2023/01/04 10:33:14;;;;;;;10.85;2.00;;;;;;;;;;6127605;23;20007;-78
2023/01/04 10:35:44;;;;;;;11.82;1.98;;;;;;;;;;6112544;23;20017;-77
2023/01/04 10:38:23;;;;;;;8.73;1.92;;;;;;;;;;6127607;23;20444;-76
2023/01/04 10:40:50;;;;;;;9.70;1.90;;;;;;;;;;6127238;23;20006;-78
2023/01/04 10:43:37;;;;;;;12.50;2.50;;;;;;;;;;6127511;23;20005;-78
2023/01/04 10:46:26;;;;;;;9.23;1.98;;;;;;;;;;6127871;23;20338;-77
2023/01/04 10:49:06;;;;;;;7.13;1.70;;;;;;;;;;6127811;23;20005;-78
2023/01/04 10:51:44;;;;;;;8.15;1.80;;;;;;;;;;6128155;23;20021;-76
2023/01/04 10:54:14;;;;;;;8.48;1.60;;;;;;;;;;6127350;23;20026;-77
2023/01/04 10:56:44;;;;;;;7.70;1.60;;;;;;;;;;6127396;23;20013;-77
2023/01/04 10:59:10;;;;;;;8.10;1.70;;;;;;;;;;6127114;23;20018;-77
2023/01/04 11:01:40;;;;;;;6.07;1.33;;;;;;;;;;6127283;23;20006;-79
2023/01/04 11:04:16;;;;;;;5.90;1.60;;;;;;;;;;6127137;23;20077;-78
2023/01/04 11:06:46;;;;;;;5.90;1.45;;;;;;;;;;6127592;23;20002;-77
2023/01/04 11:09:18;;;;;;;6.85;1.70;;;;;;;;;;6127447;23;20009;-78
2023/01/04 11:11:45;;;;;;;3.88;1.10;;;;;;;;;;6127066;23;20020;-77
2023/01/04 11:14:12;;;;;;;5.70;1.40;;;;;;;;;;6125628;23;20065;-77
2023/01/04 11:16:46;;;;;;;7.38;1.58;;;;;;;;;;6125442;23;20345;-79
2023/01/04 11:19:12;;;;;;;5.97;1.33;;;;;;;;;;6127339;23;20002;-78
2023/01/04 11:21:50;;;;;;;6.93;1.30;;;;;;;;;;6127018;23;20463;-77
2023/01/04 11:24:17;;;;;;;3.83;1.05;;;;;;;;;;6127036;23;20415;-78
2023/01/04 11:26:44;;;;;;;4.28;1.33;;;;;;;;;;6126954;23;20128;-78
2023/01/04 11:29:29;;;;;;;4.70;1.00;;;;;;;;;;6125477;23;20009;-77
2023/01/04 11:32:11;;;;;;;3.40;1.00;;;;;;;;;;6127051;23;20069;-76
2023/01/04 11:34:48;;;;;;;5.38;1.20;;;;;;;;;;6127416;23;20061;-77
2023/01/04 11:37:25;;;;;;;2.50;1.00;;;;;;;;;;6126864;23;20006;-78
2023/01/04 11:39:51;;;;;;;3.90;1.00;;;;;;;;;;6126952;23;20057;-78
2023/01/04 11:42:21;;;;;;;4.15;1.10;;;;;;;;;;6126890;23;20002;-78
2023/01/04 11:44:59;;;;;;;3.67;0.98;;;;;;;;;;6127312;23;20451;-76
2023/01/04 11:47:27;;;;;;;6.13;1.20;;;;;;;;;;6127021;23;19998;-77
2023/01/04 11:49:53;;;;;;;3.95;1.27;;;;;;;;;;6126785;23;20085;-78
2023/01/04 11:52:31;;;;;;;4.15;1.20;;;;;;;;;;6126428;23;20046;-77
2023/01/04 11:55:15;;;;;;;3.58;1.10;;;;;;;;;;6126697;23;20006;-77
2023/01/04 11:57:41;;;;;;;2.70;1.13;;;;;;;;;;6127099;23;20024;-79
2023/01/04 12:00:14;;;;;;;4.22;1.08;;;;;;;;;;6126498;23;20330;-76
2023/01/04 12:02:41;;;;;;;4.72;1.30;;;;;;;;;;6126882;23;20012;-77
2023/01/04 12:05:21;;;;;;;3.13;1.42;;;;;;;;;;6126937;23;20344;-77
2023/01/04 12:07:47;;;;;;;5.53;1.55;;;;;;;;;;6126762;23;20073;-78
2023/01/04 12:10:25;;;;;;;4.50;1.20;;;;;;;;;;6126632;23;20318;-77
2023/01/04 12:12:52;;;;;;;3.13;0.95;;;;;;;;;;6126643;23;20068;-78
2023/01/04 12:15:23;;;;;;;3.80;1.05;;;;;;;;;;6126623;23;20006;-77
2023/01/04 12:17:52;;;;;;;2.78;0.70;;;;;;;;;;6126666;23;20041;-78
2023/01/04 12:20:19;;;;;;;2.97;1.38;;;;;;;;;;6126793;23;20002;-78
2023/01/04 12:22:45;;;;;;;3.20;1.30;;;;;;;;;;6126506;23;20080;-77
2023/01/04 12:25:23;;;;;;;4.32;1.05;;;;;;;;;;6126534;23;20041;-78
2023/01/04 12:27:50;;;;;;;3.78;1.10;;;;;;;;;;6126529;23;20002;-78
2023/01/04 12:30:48;;;;;;;3.38;1.00;;;;;;;;;;6126634;23;19998;-77
2023/01/04 12:33:29;;;;;;;2.60;1.10;;;;;;;;;;6062832;23;20037;-77
2023/01/04 12:36:15;;;;;;;1.75;0.88;;;;;;;;;;6124920;23;20006;-78
2023/01/04 12:39:00;;;;;;;1.48;0.80;;;;;;;;;;6126488;23;20002;-78
2023/01/04 12:41:35;;;;;;;2.08;0.90;;;;;;;;;;6126401;23;20002;-77
2023/01/04 12:44:02;;;;;;;3.40;1.00;;;;;;;;;;6126960;23;20057;-78
2023/01/04 12:49:21;;;;;;;3.15;1.00;;;;;;;;;;6126299;23;20056;-77
2023/01/04 12:51:47;;;;;;;4.15;1.23;;;;;;;;;;6126424;23;20002;-78
2023/01/04 12:54:13;;;;;;;;;;;;;;;;;;6127073;23;20006;-78
2023/01/04 12:56:58;;;;;;;2.22;0.80;;;;;;;;;;6126322;23;20015;-77
2023/01/04 12:59:31;;;;;;;1.87;0.80;;;;;;;;;;6126257;23;20042;-79
2023/01/04 13:02:16;;;;;;;2.80;0.90;;;;;;;;;;6127113;23;20217;-78
2023/01/04 13:04:42;;;;;;;1.70;0.77;;;;;;;;;;6128120;23;20006;-77
2023/01/04 13:07:12;;;;;;;1.65;0.70;;;;;;;;;;6128366;23;19998;-78
2023/01/04 13:09:43;;;;;;;3.50;0.80;;;;;;;;;;6128369;23;20029;-77
2023/01/04 13:12:27;;;;;;;2.72;1.13;;;;;;;;;;6128801;23;20425;-77
2023/01/04 13:14:59;;;;;;;3.30;0.93;;;;;;;;;;6128208;23;20010;-77
2023/01/04 13:17:26;;;;;;;2.58;1.00;;;;;;;;;;6126324;23;20005;-77
2023/01/04 13:19:53;;;;;;;4.25;1.00;;;;;;;;;;6128740;23;20009;-78
2023/01/04 13:22:27;;;;;;;1.70;0.80;;;;;;;;;;6128245;23;20006;-77
2023/01/04 13:24:56;;;;;;;1.58;0.80;;;;;;;;;;6126505;23;20014;-77
2023/01/04 13:27:23;;;;;;;2.38;0.88;;;;;;;;;;6128264;23;20002;-78
2023/01/04 13:29:50;;;;;;;2.67;0.88;;;;;;;;;;6128194;23;19998;-77
2023/01/04 13:32:35;;;;;;;3.65;1.05;;;;;;;;;;6128402;23;20017;-78
2023/01/04 13:35:01;;;;;;;3.03;0.90;;;;;;;;;;6128443;23;20002;-79
2023/01/04 13:37:44;;;;;;;2.83;1.00;;;;;;;;;;6128101;23;20064;-78
2023/01/04 13:40:22;;;;;;;2.60;0.90;;;;;;;;;;6127966;23;20333;-78
2023/01/04 13:43:01;;;;;;;3.42;1.00;;;;;;;;;;6128332;23;20005;-79
2023/01/04 13:45:35;;;;;;;4.43;1.00;;;;;;;;;;6128112;23;20489;-77
2023/01/04 13:48:03;;;;;;;3.40;1.17;;;;;;;;;;6126158;23;20006;-77
2023/01/04 13:50:29;;;;;;;2.30;0.90;;;;;;;;;;6126353;23;19998;-77
2023/01/04 13:52:55;;;;;;;2.47;1.00;;;;;;;;;;6127867;23;20436;-78
2023/01/04 13:55:26;;;;;;;2.58;0.95;;;;;;;;;;6126378;23;20009;-78
2023/01/04 13:58:16;;;;;;;3.78;1.30;;;;;;;;;;6127811;23;20032;-78
2023/01/04 14:00:45;;;;;;;3.50;1.00;;;;;;;;;;6060531;23;20061;-76
2023/01/04 14:03:14;;;;;;;4.35;1.35;;;;;;;;;;6070405;23;20028;-77
2023/01/04 14:05:46;;;;;;;2.88;1.10;;;;;;;;;;6070015;23;20131;-76
2023/01/04 14:08:18;;;;;;;2.67;0.90;;;;;;;;;;6068077;23;20343;-78
2023/01/04 14:10:44;;;;;;;3.80;1.05;;;;;;;;;;6069902;23;20007;-78
2023/01/04 14:13:15;;;;;;;4.40;1.30;;;;;;;;;;6069843;23;20383;-77
2023/01/04 14:15:41;;;;;;;3.92;1.13;;;;;;;;;;6069256;23;20037;-78
2023/01/04 14:18:24;;;;;;;2.00;0.90;;;;;;;;;;6068011;23;20045;-78
2023/01/04 14:20:50;;;;;;;9.65;1.52;;;;;;;;;;6069741;23;20081;-76
2023/01/04 14:23:33;;;;;;;2.35;0.90;;;;;;;;;;6069704;23;20030;-77
2023/01/04 14:25:59;;;;;;;4.10;1.08;;;;;;;;;;6070110;23;20007;-77
2023/01/04 14:28:31;;;;;;;3.33;1.10;;;;;;;;;;6069517;23;20027;-77
2023/01/04 14:30:57;;;;;;;2.67;1.00;;;;;;;;;;6067894;23;20030;-76
2023/01/04 14:33:29;;;;;;;3.42;1.00;;;;;;;;;;6069401;23;20350;-76
2023/01/04 14:36:01;;;;;;;2.00;0.93;;;;;;;;;;6069566;23;20005;-78
2023/01/04 14:38:28;;;;;;;2.92;0.80;;;;;;;;;;6067895;23;20002;-77
2023/01/04 14:40:54;;;;;;;4.78;1.35;;;;;;;;;;6069551;23;20007;-78
2023/01/04 14:43:34;;;;;;;1.70;0.85;;;;;;;;;;6069297;23;20430;-77
2023/01/04 14:46:00;;;;;;;2.65;1.00;;;;;;;;;;6069263;23;20074;-78
2023/01/04 14:48:27;;;;;;;1.67;1.00;;;;;;;;;;6069762;23;20006;-77
2023/01/04 14:50:54;;;;;;;3.05;0.90;;;;;;;;;;6069357;23;20070;-78
2023/01/04 14:53:20;;;;;;;3.95;1.00;;;;;;;;;;6069468;23;20502;-76
2023/01/04 14:55:46;;;;;;;3.95;1.40;;;;;;;;;;6069191;23;20007;-78
2023/01/04 14:58:12;;;;;;;4.93;1.20;;;;;;;;;;6069859;23;20003;-78
2023/01/04 15:00:38;;;;;;;4.13;1.30;;;;;;;;;;6122346;23;20018;-77
2023/01/04 15:03:04;;;;;;;3.15;0.90;;;;;;;;;;6127463;23;20006;-78
2023/01/04 15:05:31;;;;;;;5.90;1.20;;;;;;;;;;6127078;23;20536;-77
2023/01/04 15:07:57;;;;;;;4.13;1.02;;;;;;;;;;6127884;23;19998;-77
2023/01/04 15:10:25;;;;;;;3.40;1.27;;;;;;;;;;6127635;23;19998;-78
2023/01/04 15:12:51;;;;;;;2.40;1.10;;;;;;;;;;6127505;23;20056;-77
2023/01/04 15:15:18;;;;;;;2.53;0.90;;;;;;;;;;6127145;23;20368;-77
2023/01/04 15:17:44;;;;;;;5.35;1.30;;;;;;;;;;6127166;23;20010;-76
2023/01/04 15:20:10;;;;;;;3.63;1.02;;;;;;;;;;6127067;23;20006;-77
2023/01/04 15:22:36;;;;;;;2.65;1.00;;;;;;;;;;6127275;23;20002;-77
2023/01/04 15:25:02;;;;;;;2.78;1.10;;;;;;;;;;6125059;23;20002;-77
2023/01/04 15:27:28;;;;;;;2.95;1.00;;;;;;;;;;6126477;23;20008;-77
2023/01/04 15:29:54;;;;;;;4.07;1.10;;;;;;;;;;6126351;23;20002;-77
2023/01/04 15:32:20;;;;;;;2.70;0.98;;;;;;;;;;6126371;23;20463;-77
2023/01/04 15:34:50;;;;;;;3.63;0.93;;;;;;;;;;6126698;23;20318;-78
2023/01/04 15:37:16;;;;;;;2.88;0.98;;;;;;;;;;6126327;23;20013;-75
2023/01/04 15:39:42;;;;;;;3.10;1.00;;;;;;;;;;6126450;23;20006;-77
2023/01/04 15:44:56;;;;;;;2.95;1.08;;;;;;;;;;6125860;23;20065;-76
2023/01/04 15:47:22;;;;;;;4.78;1.02;;;;;;;;;;6126673;23;20077;-77
2023/01/04 15:49:48;;;;;;;5.55;1.20;;;;;;;;;;6126483;23;20008;-79
2023/01/04 15:52:14;;;;;;;4.55;1.30;;;;;;;;;;6126426;23;20006;-77
2023/01/04 15:54:40;;;;;;;4.25;1.20;;;;;;;;;;6124754;23;20010;-78
2023/01/04 15:57:07;;;;;;;2.65;1.00;;;;;;;;;;6125676;23;20002;-76
2023/01/04 15:59:33;;;;;;;4.90;1.08;;;;;;;;;;6126209;23;20017;-77